createdAt,value
2019-01-31T00:13:57.869Z,57.2
2019-01-31T00:29:10.478Z,57.1
2019-01-31T00:44:19.999Z,56.6
2019-01-31T00:59:31.037Z,58.7
2019-01-31T01:14:41.988Z,58.5
2019-01-31T01:29:53.046Z,57.9
2019-01-31T01:45:00.480Z,58.2
2019-01-31T02:00:15.023Z,58.9
2019-01-31T02:15:26.001Z,58
2019-01-31T02:30:36.975Z,58.6
2019-01-31T02:45:39.215Z,59.9
2019-01-31T03:00:58.758Z,60.5
2019-01-31T03:16:10.019Z,60.7
2019-01-31T03:31:20.517Z,61.1
2019-01-31T03:46:31.282Z,62.1
2019-01-31T04:01:42.181Z,62.5
2019-01-31T04:16:52.651Z,62.9
2019-01-31T04:32:03.385Z,64
2019-01-31T04:47:14.086Z,64.5
2019-01-31T05:02:19.899Z,63.9
2019-01-31T05:17:35.403Z,64.4
2019-01-31T05:32:46.018Z,64.4
2019-01-31T05:47:56.711Z,64.2
2019-01-31T06:03:07.381Z,64.7
2019-01-31T06:18:17.985Z,65.8
2019-01-31T06:33:28.820Z,65.7
2019-01-31T06:48:39.169Z,66.5
2019-01-31T07:03:50.002Z,66.7
2019-01-31T07:18:59.491Z,67.6
2019-01-31T07:34:10.952Z,67.3
2019-01-31T07:49:21.939Z,66.6
2019-01-31T08:04:32.660Z,65.2
2019-01-31T08:19:37.987Z,61.2
2019-01-31T08:34:53.834Z,60.5
2019-01-31T08:50:04.742Z,60.6
2019-01-31T09:05:15.728Z,59
2019-01-31T09:20:18.753Z,57.8
2019-01-31T09:35:38.237Z,54.8
2019-01-31T09:50:49.704Z,54.4
2019-01-31T10:06:01.390Z,51.9
2019-01-31T10:21:13.512Z,49.5
2019-01-31T10:36:24.794Z,44.5
2019-01-31T10:51:39.342Z,38.4
2019-01-31T11:06:54.972Z,32.7
2019-01-31T11:22:11.624Z,31.4
2019-01-31T11:37:28.118Z,29.1
2019-01-31T11:52:33.937Z,30.1
2019-01-31T12:07:57.422Z,30.9
2019-01-31T12:23:12.052Z,29.1
2019-01-31T12:38:37.215Z,25.8
2019-01-31T12:53:44.879Z,23.6
2019-01-31T13:09:01.133Z,24.9
2019-01-31T13:24:11.365Z,25.1
2019-01-31T13:39:32.709Z,25.8
2019-01-31T13:54:47.929Z,26
2019-01-31T14:10:03.546Z,26.3
2019-01-31T14:25:17.236Z,30.2
2019-01-31T14:40:23.164Z,29.8
2019-01-31T14:55:44.940Z,31.1
2019-01-31T15:10:56.633Z,32.4
2019-01-31T15:26:09.095Z,36
2019-01-31T15:41:21.257Z,40.8
2019-01-31T15:56:32.808Z,56.5
2019-01-31T16:11:45.428Z,43.6
2019-01-31T16:26:56.924Z,43.7
2019-01-31T16:42:08.641Z,44.9
2019-01-31T16:57:15.644Z,45.2
2019-01-31T17:12:32.831Z,44.3
2019-01-31T17:27:44.649Z,45.1
2019-01-31T17:42:56.437Z,46.5
2019-01-31T17:58:08.003Z,49.1
2019-01-31T18:13:19.729Z,49.7
2019-01-31T18:28:31.186Z,51.8
2019-01-31T18:43:42.913Z,53.5
2019-01-31T18:58:53.801Z,55.3
2019-01-31T19:14:02.503Z,56.4
2019-01-31T19:29:16.327Z,57.5
2019-01-31T19:44:27.834Z,58.2
2019-01-31T19:59:39.079Z,59.2
2019-01-31T20:14:42.318Z,68.2
2019-01-31T20:30:01.819Z,56.5
2019-01-31T20:45:13.691Z,60.7
2019-01-31T21:00:24.989Z,61.6
2019-01-31T21:15:36.106Z,64.6
2019-01-31T21:30:47.377Z,64.2
2019-01-31T21:44:04.087Z,70.3
2019-01-31T21:47:03.642Z,70.3
2019-01-31T22:02:05.716Z,66.5
2019-01-31T22:17:16.531Z,66.8
2019-01-31T22:32:26.162Z,66.1
2019-01-31T22:47:38.175Z,65.3
2019-01-31T23:02:48.980Z,65.3
2019-01-31T23:18:03.354Z,64.9
2019-01-31T23:33:10.621Z,64.2
2019-01-31T23:48:21.392Z,64.3
